sensor_id;sensor_type;location;lat;lon;timestamp;P1;durP1;ratioP1;P2;durP2;ratioP2
76157;SDS011;64907;51.574;6.502;2023-08-31T00:01:48;8.87;;;5.53;;
76157;SDS011;64907;51.574;6.502;2023-08-31T00:04:18;8.23;;;5.28;;
76157;SDS011;64907;51.574;6.502;2023-08-31T00:06:46;5.53;;;5.00;;
76157;SDS011;64907;51.574;6.502;2023-08-31T00:09:13;8.20;;;5.18;;
76157;SDS011;64907;51.574;6.502;2023-08-31T00:11:38;8.05;;;5.53;;
76157;SDS011;64907;51.574;6.502;2023-08-31T00:14:03;7.20;;;5.60;;
76157;SDS011;64907;51.574;6.502;2023-08-31T00:16:28;7.28;;;5.93;;
76157;SDS011;64907;51.574;6.502;2023-08-31T00:18:55;6.00;;;5.45;;
76157;SDS011;64907;51.574;6.502;2023-08-31T00:21:21;6.90;;;5.45;;
76157;SDS011;64907;51.574;6.502;2023-08-31T00:23:54;6.30;;;5.47;;
76157;SDS011;64907;51.574;6.502;2023-08-31T00:26:19;8.90;;;5.65;;
76157;SDS011;64907;51.574;6.502;2023-08-31T00:28:45;5.72;;;5.22;;
76157;SDS011;64907;51.574;6.502;2023-08-31T00:31:10;5.78;;;5.28;;
76157;SDS011;64907;51.574;6.502;2023-08-31T00:33:39;8.50;;;4.95;;
76157;SDS011;64907;51.574;6.502;2023-08-31T00:36:04;6.40;;;5.72;;
76157;SDS011;64907;51.574;6.502;2023-08-31T00:38:30;6.43;;;5.60;;
76157;SDS011;64907;51.574;6.502;2023-08-31T00:40:55;8.13;;;6.03;;
76157;SDS011;64907;51.574;6.502;2023-08-31T00:43:23;6.90;;;6.13;;
76157;SDS011;64907;51.574;6.502;2023-08-31T00:45:49;11.98;;;5.95;;
76157;SDS011;64907;51.574;6.502;2023-08-31T00:48:15;7.18;;;6.30;;
76157;SDS011;64907;51.574;6.502;2023-08-31T00:50:42;6.82;;;6.03;;
76157;SDS011;64907;51.574;6.502;2023-08-31T00:53:07;7.47;;;6.50;;
76157;SDS011;64907;51.574;6.502;2023-08-31T00:55:32;8.93;;;6.70;;
76157;SDS011;64907;51.574;6.502;2023-08-31T01:00:33;9.25;;;7.20;;
76157;SDS011;64907;51.574;6.502;2023-08-31T01:03:05;7.75;;;7.03;;
76157;SDS011;64907;51.574;6.502;2023-08-31T01:13:11;9.68;;;7.38;;
76157;SDS011;64907;51.574;6.502;2023-08-31T01:15:39;8.35;;;7.53;;
76157;SDS011;64907;51.574;6.502;2023-08-31T01:18:05;8.68;;;7.78;;
76157;SDS011;64907;51.574;6.502;2023-08-31T01:20:37;8.40;;;7.65;;
76157;SDS011;64907;51.574;6.502;2023-08-31T01:23:08;9.65;;;8.75;;
76157;SDS011;64907;51.574;6.502;2023-08-31T01:25:35;10.63;;;8.80;;
76157;SDS011;64907;51.574;6.502;2023-08-31T01:28:01;12.38;;;8.93;;
76157;SDS011;64907;51.574;6.502;2023-08-31T01:30:30;11.40;;;7.93;;
76157;SDS011;64907;51.574;6.502;2023-08-31T01:32:56;11.18;;;8.52;;
76157;SDS011;64907;51.574;6.502;2023-08-31T01:35:21;10.95;;;9.10;;
76157;SDS011;64907;51.574;6.502;2023-08-31T01:38:01;11.68;;;9.02;;
76157;SDS011;64907;51.574;6.502;2023-08-31T01:43:03;13.90;;;9.43;;
76157;SDS011;64907;51.574;6.502;2023-08-31T01:45:29;12.88;;;9.40;;
76157;SDS011;64907;51.574;6.502;2023-08-31T01:47:55;12.50;;;9.73;;
76157;SDS011;64907;51.574;6.502;2023-08-31T01:52:51;16.05;;;9.27;;
76157;SDS011;64907;51.574;6.502;2023-08-31T01:55:20;11.88;;;9.18;;
76157;SDS011;64907;51.574;6.502;2023-08-31T01:57:46;13.23;;;10.85;;
76157;SDS011;64907;51.574;6.502;2023-08-31T02:00:16;12.43;;;11.20;;
76157;SDS011;64907;51.574;6.502;2023-08-31T02:02:41;16.30;;;11.05;;
76157;SDS011;64907;51.574;6.502;2023-08-31T02:05:07;14.98;;;11.25;;
76157;SDS011;64907;51.574;6.502;2023-08-31T02:07:32;17.25;;;12.30;;
76157;SDS011;64907;51.574;6.502;2023-08-31T02:10:04;14.57;;;12.25;;
76157;SDS011;64907;51.574;6.502;2023-08-31T02:12:31;16.58;;;12.63;;
76157;SDS011;64907;51.574;6.502;2023-08-31T02:14:56;15.25;;;11.93;;
76157;SDS011;64907;51.574;6.502;2023-08-31T02:17:22;16.03;;;12.73;;
76157;SDS011;64907;51.574;6.502;2023-08-31T02:19:47;20.30;;;13.05;;
76157;SDS011;64907;51.574;6.502;2023-08-31T02:22:13;13.48;;;11.70;;
76157;SDS011;64907;51.574;6.502;2023-08-31T02:24:38;16.07;;;12.70;;
76157;SDS011;64907;51.574;6.502;2023-08-31T02:27:03;15.50;;;12.63;;
76157;SDS011;64907;51.574;6.502;2023-08-31T02:29:28;17.55;;;13.30;;
76157;SDS011;64907;51.574;6.502;2023-08-31T02:31:54;17.63;;;12.23;;
76157;SDS011;64907;51.574;6.502;2023-08-31T02:34:19;16.95;;;13.38;;
76157;SDS011;64907;51.574;6.502;2023-08-31T02:36:44;15.50;;;12.63;;
76157;SDS011;64907;51.574;6.502;2023-08-31T02:39:09;21.40;;;13.18;;
76157;SDS011;64907;51.574;6.502;2023-08-31T02:41:34;16.40;;;13.40;;
76157;SDS011;64907;51.574;6.502;2023-08-31T02:44:07;15.87;;;13.30;;
76157;SDS011;64907;51.574;6.502;2023-08-31T02:46:32;18.17;;;14.95;;
76157;SDS011;64907;51.574;6.502;2023-08-31T02:48:57;19.25;;;14.52;;
76157;SDS011;64907;51.574;6.502;2023-08-31T02:51:22;16.58;;;14.48;;
76157;SDS011;64907;51.574;6.502;2023-08-31T02:53:48;17.57;;;14.30;;
76157;SDS011;64907;51.574;6.502;2023-08-31T02:56:13;16.85;;;14.52;;
76157;SDS011;64907;51.574;6.502;2023-08-31T02:58:39;18.52;;;15.15;;
76157;SDS011;64907;51.574;6.502;2023-08-31T03:01:10;20.15;;;15.73;;
76157;SDS011;64907;51.574;6.502;2023-08-31T03:03:36;21.42;;;16.17;;
76157;SDS011;64907;51.574;6.502;2023-08-31T03:06:03;16.83;;;14.45;;
76157;SDS011;64907;51.574;6.502;2023-08-31T03:08:28;23.75;;;15.57;;
76157;SDS011;64907;51.574;6.502;2023-08-31T03:10:54;19.58;;;14.98;;
76157;SDS011;64907;51.574;6.502;2023-08-31T03:13:20;17.92;;;16.00;;
76157;SDS011;64907;51.574;6.502;2023-08-31T03:15:45;20.05;;;15.63;;
76157;SDS011;64907;51.574;6.502;2023-08-31T03:18:10;19.60;;;15.67;;
76157;SDS011;64907;51.574;6.502;2023-08-31T03:23:09;18.08;;;15.43;;
76157;SDS011;64907;51.574;6.502;2023-08-31T03:25:36;24.85;;;15.65;;
76157;SDS011;64907;51.574;6.502;2023-08-31T03:28:01;19.25;;;16.10;;
76157;SDS011;64907;51.574;6.502;2023-08-31T03:30:26;18.90;;;15.50;;
76157;SDS011;64907;51.574;6.502;2023-08-31T03:32:51;16.77;;;14.40;;
76157;SDS011;64907;51.574;6.502;2023-08-31T03:35:16;19.30;;;15.93;;
76157;SDS011;64907;51.574;6.502;2023-08-31T03:37:41;22.90;;;18.20;;
76157;SDS011;64907;51.574;6.502;2023-08-31T03:40:08;22.73;;;16.33;;
76157;SDS011;64907;51.574;6.502;2023-08-31T03:42:34;24.83;;;19.08;;
76157;SDS011;64907;51.574;6.502;2023-08-31T03:45:00;23.25;;;19.48;;
76157;SDS011;64907;51.574;6.502;2023-08-31T03:47:25;23.37;;;19.37;;
76157;SDS011;64907;51.574;6.502;2023-08-31T03:49:51;24.77;;;19.40;;
76157;SDS011;64907;51.574;6.502;2023-08-31T03:52:16;25.75;;;17.92;;
76157;SDS011;64907;51.574;6.502;2023-08-31T03:54:41;25.92;;;19.92;;
76157;SDS011;64907;51.574;6.502;2023-08-31T03:57:10;25.97;;;19.50;;
76157;SDS011;64907;51.574;6.502;2023-08-31T03:59:35;32.33;;;20.77;;
76157;SDS011;64907;51.574;6.502;2023-08-31T04:02:07;29.02;;;20.60;;
76157;SDS011;64907;51.574;6.502;2023-08-31T04:04:33;26.42;;;18.50;;
76157;SDS011;64907;51.574;6.502;2023-08-31T04:06:59;27.92;;;21.17;;
76157;SDS011;64907;51.574;6.502;2023-08-31T04:09:24;25.73;;;20.43;;
76157;SDS011;64907;51.574;6.502;2023-08-31T04:11:49;34.40;;;20.53;;
76157;SDS011;64907;51.574;6.502;2023-08-31T04:14:14;33.47;;;21.73;;
76157;SDS011;64907;51.574;6.502;2023-08-31T04:16:39;25.47;;;19.63;;
76157;SDS011;64907;51.574;6.502;2023-08-31T04:19:06;24.27;;;18.65;;
76157;SDS011;64907;51.574;6.502;2023-08-31T04:21:32;30.95;;;21.40;;
76157;SDS011;64907;51.574;6.502;2023-08-31T04:23:57;30.30;;;20.45;;
76157;SDS011;64907;51.574;6.502;2023-08-31T04:26:25;26.60;;;20.25;;
76157;SDS011;64907;51.574;6.502;2023-08-31T04:28:51;23.15;;;18.30;;
76157;SDS011;64907;51.574;6.502;2023-08-31T04:31:16;25.27;;;19.27;;
76157;SDS011;64907;51.574;6.502;2023-08-31T04:33:42;30.35;;;19.58;;
76157;SDS011;64907;51.574;6.502;2023-08-31T04:36:07;21.92;;;18.88;;
76157;SDS011;64907;51.574;6.502;2023-08-31T04:38:33;23.42;;;17.38;;
76157;SDS011;64907;51.574;6.502;2023-08-31T04:40:59;24.02;;;17.55;;
76157;SDS011;64907;51.574;6.502;2023-08-31T04:43:24;23.52;;;18.58;;
76157;SDS011;64907;51.574;6.502;2023-08-31T04:45:52;28.80;;;19.60;;
76157;SDS011;64907;51.574;6.502;2023-08-31T04:48:17;25.92;;;19.95;;
76157;SDS011;64907;51.574;6.502;2023-08-31T04:50:42;23.97;;;20.00;;
76157;SDS011;64907;51.574;6.502;2023-08-31T04:53:08;24.80;;;21.17;;
76157;SDS011;64907;51.574;6.502;2023-08-31T04:55:36;19.13;;;16.77;;
76157;SDS011;64907;51.574;6.502;2023-08-31T04:58:02;20.13;;;17.23;;
76157;SDS011;64907;51.574;6.502;2023-08-31T05:00:27;18.85;;;16.83;;
76157;SDS011;64907;51.574;6.502;2023-08-31T05:02:53;21.77;;;17.65;;
76157;SDS011;64907;51.574;6.502;2023-08-31T05:05:18;19.35;;;16.60;;
76157;SDS011;64907;51.574;6.502;2023-08-31T05:07:45;21.38;;;17.80;;
76157;SDS011;64907;51.574;6.502;2023-08-31T05:10:10;56.00;;;18.33;;
76157;SDS011;64907;51.574;6.502;2023-08-31T05:12:36;21.40;;;16.30;;
76157;SDS011;64907;51.574;6.502;2023-08-31T05:15:01;22.42;;;16.65;;
76157;SDS011;64907;51.574;6.502;2023-08-31T05:17:27;19.92;;;15.27;;
76157;SDS011;64907;51.574;6.502;2023-08-31T05:19:52;17.93;;;15.27;;
76157;SDS011;64907;51.574;6.502;2023-08-31T05:22:18;19.55;;;15.82;;
76157;SDS011;64907;51.574;6.502;2023-08-31T05:24:43;21.90;;;15.77;;
76157;SDS011;64907;51.574;6.502;2023-08-31T05:27:08;19.70;;;14.27;;
76157;SDS011;64907;51.574;6.502;2023-08-31T05:29:33;23.52;;;16.85;;
76157;SDS011;64907;51.574;6.502;2023-08-31T05:31:59;20.23;;;15.70;;
76157;SDS011;64907;51.574;6.502;2023-08-31T05:34:24;15.80;;;14.25;;
76157;SDS011;64907;51.574;6.502;2023-08-31T05:36:49;16.00;;;13.95;;
76157;SDS011;64907;51.574;6.502;2023-08-31T05:39:15;17.67;;;14.25;;
76157;SDS011;64907;51.574;6.502;2023-08-31T05:41:43;16.63;;;12.73;;
76157;SDS011;64907;51.574;6.502;2023-08-31T05:44:09;16.55;;;14.35;;
76157;SDS011;64907;51.574;6.502;2023-08-31T05:46:35;16.48;;;13.40;;
76157;SDS011;64907;51.574;6.502;2023-08-31T05:49:00;16.35;;;12.88;;
76157;SDS011;64907;51.574;6.502;2023-08-31T05:51:25;17.30;;;12.70;;
76157;SDS011;64907;51.574;6.502;2023-08-31T06:01:21;13.70;;;12.30;;
76157;SDS011;64907;51.574;6.502;2023-08-31T06:03:47;12.00;;;10.80;;
76157;SDS011;64907;51.574;6.502;2023-08-31T06:06:16;12.45;;;10.25;;
76157;SDS011;64907;51.574;6.502;2023-08-31T06:08:42;13.95;;;9.85;;
76157;SDS011;64907;51.574;6.502;2023-08-31T06:11:08;10.48;;;8.80;;
76157;SDS011;64907;51.574;6.502;2023-08-31T06:13:33;10.25;;;9.35;;
76157;SDS011;64907;51.574;6.502;2023-08-31T06:15:59;13.65;;;9.55;;
76157;SDS011;64907;51.574;6.502;2023-08-31T06:18:26;8.85;;;7.95;;
76157;SDS011;64907;51.574;6.502;2023-08-31T06:20:52;10.27;;;8.32;;
76157;SDS011;64907;51.574;6.502;2023-08-31T06:23:18;8.70;;;7.53;;
76157;SDS011;64907;51.574;6.502;2023-08-31T06:25:43;12.73;;;7.43;;
76157;SDS011;64907;51.574;6.502;2023-08-31T06:28:11;8.18;;;7.38;;
76157;SDS011;64907;51.574;6.502;2023-08-31T06:30:38;7.47;;;6.90;;
76157;SDS011;64907;51.574;6.502;2023-08-31T06:33:10;8.20;;;6.95;;
76157;SDS011;64907;51.574;6.502;2023-08-31T06:35:38;9.15;;;7.15;;
76157;SDS011;64907;51.574;6.502;2023-08-31T06:38:03;8.60;;;6.20;;
76157;SDS011;64907;51.574;6.502;2023-08-31T06:40:28;9.68;;;7.05;;
76157;SDS011;64907;51.574;6.502;2023-08-31T06:42:53;7.20;;;6.13;;
76157;SDS011;64907;51.574;6.502;2023-08-31T06:45:18;10.32;;;7.15;;
76157;SDS011;64907;51.574;6.502;2023-08-31T06:47:49;10.10;;;6.60;;
76157;SDS011;64907;51.574;6.502;2023-08-31T06:50:15;8.50;;;6.57;;
76157;SDS011;64907;51.574;6.502;2023-08-31T06:52:41;6.82;;;6.00;;
76157;SDS011;64907;51.574;6.502;2023-08-31T06:55:06;10.85;;;6.78;;
76157;SDS011;64907;51.574;6.502;2023-08-31T06:57:31;6.70;;;6.10;;
76157;SDS011;64907;51.574;6.502;2023-08-31T06:59:57;6.70;;;5.60;;
76157;SDS011;64907;51.574;6.502;2023-08-31T07:02:36;7.20;;;6.23;;
76157;SDS011;64907;51.574;6.502;2023-08-31T07:05:02;10.23;;;6.78;;
76157;SDS011;64907;51.574;6.502;2023-08-31T07:10:08;9.70;;;6.45;;
76157;SDS011;64907;51.574;6.502;2023-08-31T07:12:33;7.63;;;6.55;;
76157;SDS011;64907;51.574;6.502;2023-08-31T07:14:58;14.73;;;6.63;;
76157;SDS011;64907;51.574;6.502;2023-08-31T07:17:23;7.90;;;6.40;;
76157;SDS011;64907;51.574;6.502;2023-08-31T07:19:49;9.20;;;6.57;;
76157;SDS011;64907;51.574;6.502;2023-08-31T07:22:14;6.77;;;6.13;;
76157;SDS011;64907;51.574;6.502;2023-08-31T07:27:21;7.80;;;6.40;;
76157;SDS011;64907;51.574;6.502;2023-08-31T07:29:47;8.33;;;6.00;;
76157;SDS011;64907;51.574;6.502;2023-08-31T07:32:15;5.50;;;5.00;;
76157;SDS011;64907;51.574;6.502;2023-08-31T07:34:40;6.15;;;5.55;;
76157;SDS011;64907;51.574;6.502;2023-08-31T07:37:05;5.47;;;4.97;;
76157;SDS011;64907;51.574;6.502;2023-08-31T07:39:31;5.88;;;5.32;;
76157;SDS011;64907;51.574;6.502;2023-08-31T07:41:56;5.75;;;5.25;;
76157;SDS011;64907;51.574;6.502;2023-08-31T07:44:22;6.53;;;5.38;;
76157;SDS011;64907;51.574;6.502;2023-08-31T07:46:47;8.27;;;5.70;;
76157;SDS011;64907;51.574;6.502;2023-08-31T07:49:12;5.87;;;5.27;;
76157;SDS011;64907;51.574;6.502;2023-08-31T07:51:39;5.33;;;4.93;;
76157;SDS011;64907;51.574;6.502;2023-08-31T07:54:05;7.00;;;5.32;;
76157;SDS011;64907;51.574;6.502;2023-08-31T07:56:30;7.43;;;5.27;;
76157;SDS011;64907;51.574;6.502;2023-08-31T07:58:57;6.03;;;5.53;;
76157;SDS011;64907;51.574;6.502;2023-08-31T08:01:23;6.18;;;4.78;;
76157;SDS011;64907;51.574;6.502;2023-08-31T08:03:48;7.03;;;5.20;;
76157;SDS011;64907;51.574;6.502;2023-08-31T08:06:14;8.07;;;5.75;;
76157;SDS011;64907;51.574;6.502;2023-08-31T08:08:39;6.30;;;5.30;;
76157;SDS011;64907;51.574;6.502;2023-08-31T08:11:04;7.83;;;5.60;;
76157;SDS011;64907;51.574;6.502;2023-08-31T08:13:30;5.80;;;5.20;;
76157;SDS011;64907;51.574;6.502;2023-08-31T08:15:55;5.17;;;4.70;;
76157;SDS011;64907;51.574;6.502;2023-08-31T08:18:20;4.83;;;4.47;;
76157;SDS011;64907;51.574;6.502;2023-08-31T08:20:50;5.47;;;4.57;;
76157;SDS011;64907;51.574;6.502;2023-08-31T08:23:15;6.53;;;4.78;;
76157;SDS011;64907;51.574;6.502;2023-08-31T08:25:40;5.07;;;4.57;;
76157;SDS011;64907;51.574;6.502;2023-08-31T08:28:05;5.20;;;4.70;;
76157;SDS011;64907;51.574;6.502;2023-08-31T08:30:33;5.20;;;4.70;;
76157;SDS011;64907;51.574;6.502;2023-08-31T08:32:58;6.65;;;4.88;;
76157;SDS011;64907;51.574;6.502;2023-08-31T08:35:23;8.15;;;4.80;;
76157;SDS011;64907;51.574;6.502;2023-08-31T08:37:49;6.32;;;4.45;;
76157;SDS011;64907;51.574;6.502;2023-08-31T08:40:14;6.20;;;4.67;;
76157;SDS011;64907;51.574;6.502;2023-08-31T08:42:43;4.80;;;4.00;;
76157;SDS011;64907;51.574;6.502;2023-08-31T08:45:12;5.30;;;4.55;;
76157;SDS011;64907;51.574;6.502;2023-08-31T08:47:40;5.40;;;4.38;;
76157;SDS011;64907;51.574;6.502;2023-08-31T08:50:05;5.82;;;4.18;;
76157;SDS011;64907;51.574;6.502;2023-08-31T08:52:31;4.40;;;3.97;;
76157;SDS011;64907;51.574;6.502;2023-08-31T08:54:56;4.55;;;4.00;;
76157;SDS011;64907;51.574;6.502;2023-08-31T08:59:59;9.35;;;4.88;;
76157;SDS011;64907;51.574;6.502;2023-08-31T09:02:24;5.28;;;4.30;;
76157;SDS011;64907;51.574;6.502;2023-08-31T09:04:49;5.67;;;4.60;;
76157;SDS011;64907;51.574;6.502;2023-08-31T09:07:19;9.50;;;5.05;;
76157;SDS011;64907;51.574;6.502;2023-08-31T09:12:23;6.82;;;4.00;;
76157;SDS011;64907;51.574;6.502;2023-08-31T09:15:02;4.78;;;3.83;;
76157;SDS011;64907;51.574;6.502;2023-08-31T09:17:42;6.40;;;4.60;;
76157;SDS011;64907;51.574;6.502;2023-08-31T09:20:09;4.90;;;4.25;;
76157;SDS011;64907;51.574;6.502;2023-08-31T09:22:34;9.07;;;4.15;;
76157;SDS011;64907;51.574;6.502;2023-08-31T09:24:59;9.07;;;4.57;;
76157;SDS011;64907;51.574;6.502;2023-08-31T09:27:25;5.10;;;4.60;;
76157;SDS011;64907;51.574;6.502;2023-08-31T09:29:50;4.80;;;3.80;;
76157;SDS011;64907;51.574;6.502;2023-08-31T09:32:16;5.82;;;4.20;;
76157;SDS011;64907;51.574;6.502;2023-08-31T09:34:41;4.40;;;3.88;;
76157;SDS011;64907;51.574;6.502;2023-08-31T09:37:08;3.53;;;3.17;;
76157;SDS011;64907;51.574;6.502;2023-08-31T09:39:37;5.70;;;3.47;;
76157;SDS011;64907;51.574;6.502;2023-08-31T09:42:03;4.60;;;3.28;;
76157;SDS011;64907;51.574;6.502;2023-08-31T09:44:29;4.85;;;3.15;;
76157;SDS011;64907;51.574;6.502;2023-08-31T09:46:54;4.83;;;3.17;;
76157;SDS011;64907;51.574;6.502;2023-08-31T09:51:49;6.43;;;3.30;;
76157;SDS011;64907;51.574;6.502;2023-08-31T09:54:18;3.55;;;3.30;;
76157;SDS011;64907;51.574;6.502;2023-08-31T09:56:44;2.53;;;2.00;;
76157;SDS011;64907;51.574;6.502;2023-08-31T09:59:10;6.00;;;2.75;;
76157;SDS011;64907;51.574;6.502;2023-08-31T10:01:45;4.75;;;2.20;;
76157;SDS011;64907;51.574;6.502;2023-08-31T10:04:10;4.00;;;2.50;;
76157;SDS011;64907;51.574;6.502;2023-08-31T10:06:41;3.65;;;2.55;;
76157;SDS011;64907;51.574;6.502;2023-08-31T10:09:06;3.90;;;3.05;;
76157;SDS011;64907;51.574;6.502;2023-08-31T10:11:34;2.63;;;2.40;;
76157;SDS011;64907;51.574;6.502;2023-08-31T10:14:00;3.40;;;2.88;;
76157;SDS011;64907;51.574;6.502;2023-08-31T10:16:26;2.83;;;2.63;;
76157;SDS011;64907;51.574;6.502;2023-08-31T10:18:57;3.17;;;2.30;;
76157;SDS011;64907;51.574;6.502;2023-08-31T10:21:23;4.85;;;3.38;;
76157;SDS011;64907;51.574;6.502;2023-08-31T10:23:50;4.22;;;2.90;;
76157;SDS011;64907;51.574;6.502;2023-08-31T10:26:23;7.88;;;2.85;;
76157;SDS011;64907;51.574;6.502;2023-08-31T10:28:48;4.68;;;2.58;;
76157;SDS011;64907;51.574;6.502;2023-08-31T10:31:16;4.20;;;2.37;;
76157;SDS011;64907;51.574;6.502;2023-08-31T10:33:44;3.63;;;2.70;;
76157;SDS011;64907;51.574;6.502;2023-08-31T10:36:14;3.67;;;3.00;;
76157;SDS011;64907;51.574;6.502;2023-08-31T10:38:40;3.05;;;2.60;;
76157;SDS011;64907;51.574;6.502;2023-08-31T10:43:44;4.55;;;2.30;;
76157;SDS011;64907;51.574;6.502;2023-08-31T10:48:54;5.95;;;3.00;;
76157;SDS011;64907;51.574;6.502;2023-08-31T10:51:38;2.88;;;2.58;;
76157;SDS011;64907;51.574;6.502;2023-08-31T10:56:29;6.68;;;3.38;;
76157;SDS011;64907;51.574;6.502;2023-08-31T10:58:57;5.15;;;3.17;;
76157;SDS011;64907;51.574;6.502;2023-08-31T11:04:10;4.40;;;3.20;;
76157;SDS011;64907;51.574;6.502;2023-08-31T11:06:35;4.28;;;2.67;;
76157;SDS011;64907;51.574;6.502;2023-08-31T11:09:01;2.95;;;2.65;;
76157;SDS011;64907;51.574;6.502;2023-08-31T11:11:26;5.40;;;2.92;;
76157;SDS011;64907;51.574;6.502;2023-08-31T11:13:56;3.00;;;2.80;;
76157;SDS011;64907;51.574;6.502;2023-08-31T11:16:21;4.43;;;3.10;;
76157;SDS011;64907;51.574;6.502;2023-08-31T11:18:46;3.57;;;2.87;;
76157;SDS011;64907;51.574;6.502;2023-08-31T11:21:11;3.13;;;2.80;;
76157;SDS011;64907;51.574;6.502;2023-08-31T11:23:38;4.68;;;2.97;;
76157;SDS011;64907;51.574;6.502;2023-08-31T11:26:03;3.90;;;3.13;;
76157;SDS011;64907;51.574;6.502;2023-08-31T11:28:32;6.78;;;2.88;;
76157;SDS011;64907;51.574;6.502;2023-08-31T11:33:31;5.82;;;2.78;;
76157;SDS011;64907;51.574;6.502;2023-08-31T11:35:57;2.75;;;2.55;;
76157;SDS011;64907;51.574;6.502;2023-08-31T11:38:23;2.65;;;2.45;;
76157;SDS011;64907;51.574;6.502;2023-08-31T11:40:49;2.20;;;2.00;;
76157;SDS011;64907;51.574;6.502;2023-08-31T11:45:44;4.13;;;2.35;;
76157;SDS011;64907;51.574;6.502;2023-08-31T11:48:10;2.40;;;2.15;;
76157;SDS011;64907;51.574;6.502;2023-08-31T11:50:35;2.92;;;1.80;;
76157;SDS011;64907;51.574;6.502;2023-08-31T11:53:01;2.53;;;2.20;;
76157;SDS011;64907;51.574;6.502;2023-08-31T11:55:27;4.75;;;1.98;;
76157;SDS011;64907;51.574;6.502;2023-08-31T11:57:54;3.22;;;2.13;;
76157;SDS011;64907;51.574;6.502;2023-08-31T12:00:20;2.35;;;1.70;;
76157;SDS011;64907;51.574;6.502;2023-08-31T12:02:57;2.03;;;1.90;;
76157;SDS011;64907;51.574;6.502;2023-08-31T12:05:23;4.03;;;2.03;;
76157;SDS011;64907;51.574;6.502;2023-08-31T12:07:48;2.38;;;1.75;;
76157;SDS011;64907;51.574;6.502;2023-08-31T12:10:14;4.18;;;2.30;;
76157;SDS011;64907;51.574;6.502;2023-08-31T12:15:30;2.17;;;1.42;;
76157;SDS011;64907;51.574;6.502;2023-08-31T12:17:56;3.35;;;1.75;;
76157;SDS011;64907;51.574;6.502;2023-08-31T12:20:25;2.13;;;1.80;;
76157;SDS011;64907;51.574;6.502;2023-08-31T12:22:53;1.80;;;1.70;;
76157;SDS011;64907;51.574;6.502;2023-08-31T12:25:28;2.07;;;1.77;;
76157;SDS011;64907;51.574;6.502;2023-08-31T12:27:53;2.63;;;1.77;;
76157;SDS011;64907;51.574;6.502;2023-08-31T12:30:19;3.07;;;2.00;;
76157;SDS011;64907;51.574;6.502;2023-08-31T12:32:44;1.67;;;1.58;;
76157;SDS011;64907;51.574;6.502;2023-08-31T12:35:09;2.13;;;1.80;;
76157;SDS011;64907;51.574;6.502;2023-08-31T12:37:36;3.38;;;1.95;;
76157;SDS011;64907;51.574;6.502;2023-08-31T12:40:01;4.87;;;2.00;;
76157;SDS011;64907;51.574;6.502;2023-08-31T12:42:30;2.00;;;1.90;;
76157;SDS011;64907;51.574;6.502;2023-08-31T12:44:56;2.47;;;2.00;;
76157;SDS011;64907;51.574;6.502;2023-08-31T12:47:21;10.27;;;3.37;;
76157;SDS011;64907;51.574;6.502;2023-08-31T12:49:55;6.27;;;2.20;;
76157;SDS011;64907;51.574;6.502;2023-08-31T12:52:21;2.22;;;1.98;;
76157;SDS011;64907;51.574;6.502;2023-08-31T12:54:55;3.67;;;2.37;;
76157;SDS011;64907;51.574;6.502;2023-08-31T12:57:20;5.90;;;2.17;;
76157;SDS011;64907;51.574;6.502;2023-08-31T12:59:45;3.23;;;2.40;;
76157;SDS011;64907;51.574;6.502;2023-08-31T13:02:11;3.13;;;2.83;;
76157;SDS011;64907;51.574;6.502;2023-08-31T13:04:37;3.35;;;2.20;;
76157;SDS011;64907;51.574;6.502;2023-08-31T13:07:14;5.20;;;2.30;;
76157;SDS011;64907;51.574;6.502;2023-08-31T13:09:39;5.60;;;3.25;;
76157;SDS011;64907;51.574;6.502;2023-08-31T13:12:05;4.13;;;2.58;;
76157;SDS011;64907;51.574;6.502;2023-08-31T13:14:36;3.25;;;2.75;;
76157;SDS011;64907;51.574;6.502;2023-08-31T13:17:03;2.83;;;2.60;;
76157;SDS011;64907;51.574;6.502;2023-08-31T13:19:28;3.88;;;2.97;;
76157;SDS011;64907;51.574;6.502;2023-08-31T13:24:23;4.32;;;3.08;;
76157;SDS011;64907;51.574;6.502;2023-08-31T13:26:49;5.03;;;3.30;;
76157;SDS011;64907;51.574;6.502;2023-08-31T13:31:44;3.22;;;3.03;;
76157;SDS011;64907;51.574;6.502;2023-08-31T13:34:10;4.82;;;3.70;;
76157;SDS011;64907;51.574;6.502;2023-08-31T13:36:36;4.80;;;3.28;;
76157;SDS011;64907;51.574;6.502;2023-08-31T13:39:01;4.93;;;3.88;;
76157;SDS011;64907;51.574;6.502;2023-08-31T13:41:29;3.97;;;3.67;;
76157;SDS011;64907;51.574;6.502;2023-08-31T13:43:55;4.30;;;3.50;;
76157;SDS011;64907;51.574;6.502;2023-08-31T13:48:56;6.38;;;5.72;;
76157;SDS011;64907;51.574;6.502;2023-08-31T13:51:24;7.20;;;6.53;;
76157;SDS011;64907;51.574;6.502;2023-08-31T13:53:49;9.18;;;7.28;;
76157;SDS011;64907;51.574;6.502;2023-08-31T13:56:14;9.00;;;8.17;;
76157;SDS011;64907;51.574;6.502;2023-08-31T13:58:39;9.93;;;8.37;;
76157;SDS011;64907;51.574;6.502;2023-08-31T14:01:12;10.55;;;8.77;;
76157;SDS011;64907;51.574;6.502;2023-08-31T14:03:38;10.25;;;9.25;;
76157;SDS011;64907;51.574;6.502;2023-08-31T14:06:16;10.05;;;8.38;;
76157;SDS011;64907;51.574;6.502;2023-08-31T14:08:42;9.05;;;8.18;;
76157;SDS011;64907;51.574;6.502;2023-08-31T14:11:09;8.13;;;7.53;;
76157;SDS011;64907;51.574;6.502;2023-08-31T14:13:34;8.45;;;7.68;;
76157;SDS011;64907;51.574;6.502;2023-08-31T14:15:59;8.10;;;7.30;;
76157;SDS011;64907;51.574;6.502;2023-08-31T14:18:26;8.10;;;7.40;;
76157;SDS011;64907;51.574;6.502;2023-08-31T14:20:53;8.88;;;8.05;;
76157;SDS011;64907;51.574;6.502;2023-08-31T14:23:18;11.07;;;7.63;;
76157;SDS011;64907;51.574;6.502;2023-08-31T14:25:44;7.77;;;6.83;;
76157;SDS011;64907;51.574;6.502;2023-08-31T14:28:13;9.70;;;7.25;;
76157;SDS011;64907;51.574;6.502;2023-08-31T14:30:38;7.70;;;6.90;;
76157;SDS011;64907;51.574;6.502;2023-08-31T14:33:04;6.78;;;6.28;;
76157;SDS011;64907;51.574;6.502;2023-08-31T14:35:29;6.28;;;5.68;;
76157;SDS011;64907;51.574;6.502;2023-08-31T14:37:55;6.72;;;5.43;;
76157;SDS011;64907;51.574;6.502;2023-08-31T14:40:20;6.15;;;5.53;;
76157;SDS011;64907;51.574;6.502;2023-08-31T14:42:45;6.18;;;5.65;;
76157;SDS011;64907;51.574;6.502;2023-08-31T14:45:10;5.63;;;5.13;;
76157;SDS011;64907;51.574;6.502;2023-08-31T14:47:36;5.65;;;5.15;;
76157;SDS011;64907;51.574;6.502;2023-08-31T14:52:32;6.40;;;6.00;;
76157;SDS011;64907;51.574;6.502;2023-08-31T14:55:01;6.23;;;5.70;;
76157;SDS011;64907;51.574;6.502;2023-08-31T14:57:28;6.82;;;5.93;;
76157;SDS011;64907;51.574;6.502;2023-08-31T14:59:53;6.25;;;5.75;;
76157;SDS011;64907;51.574;6.502;2023-08-31T15:04:48;5.38;;;4.88;;
76157;SDS011;64907;51.574;6.502;2023-08-31T15:07:15;6.47;;;5.28;;
76157;SDS011;64907;51.574;6.502;2023-08-31T15:09:40;6.25;;;5.63;;
76157;SDS011;64907;51.574;6.502;2023-08-31T15:14:34;5.90;;;5.32;;
76157;SDS011;64907;51.574;6.502;2023-08-31T15:17:08;6.90;;;4.82;;
76157;SDS011;64907;51.574;6.502;2023-08-31T15:19:41;4.72;;;4.43;;
76157;SDS011;64907;51.574;6.502;2023-08-31T15:22:21;5.47;;;4.97;;
76157;SDS011;64907;51.574;6.502;2023-08-31T15:24:46;4.82;;;4.43;;
76157;SDS011;64907;51.574;6.502;2023-08-31T15:27:14;5.72;;;4.60;;
76157;SDS011;64907;51.574;6.502;2023-08-31T15:29:40;4.57;;;4.22;;
76157;SDS011;64907;51.574;6.502;2023-08-31T15:32:05;5.18;;;4.22;;
76157;SDS011;64907;51.574;6.502;2023-08-31T15:34:40;5.95;;;4.03;;
76157;SDS011;64907;51.574;6.502;2023-08-31T15:40:03;4.68;;;4.05;;
76157;SDS011;64907;51.574;6.502;2023-08-31T15:47:41;4.18;;;3.53;;
76157;SDS011;64907;51.574;6.502;2023-08-31T15:50:06;3.47;;;2.97;;
76157;SDS011;64907;51.574;6.502;2023-08-31T15:52:31;4.20;;;3.10;;
76157;SDS011;64907;51.574;6.502;2023-08-31T15:57:46;3.75;;;3.45;;